CheckWX is a tool to help pilots better visualize weather data.  It is not intended as a substitute for an official pre-flight weather briefing.

22:04:27 UTC

KTTN METAR
Trenton Mercer Airport Airport
Trenton, NJ, USA
Current

1 hour ago

KTTN 102053Z 06009KT 1 1/4SM -RA BR SCT009 BKN016 OVC033 23/23 A2963 RMK AO2 RAB32 SLP026 P0004 60038 T02330228 56034
Observed
Jul-10 @ 20:53 UTC
Wind
  • 060° at 9 KTS
Visibility
1 1/4 SM
Flight Rules
IFR
Conditions
Light Rain, Mist
Cloud Levels
  • Scattered at 900' AGL
  • Broken at 1,600' AGL
  • Overcast at 3,300' AGL
Temperature
23°C / 73°F
Dewpoint
23°C / 73°F
Humidity
100%
Altimeter
29.63" Hg
Pressure
1003.42 hPa
Current Rain
0.04"
Previous

1 hour ago

KTTN 102038Z 09012G20KT 050V130 1 1/2SM +RA BR FEW009 BKN019 OVC034 24/23 A2964 RMK AO2 RAB32 P0001 T02440233
Observed
Jul-10 @ 20:38 UTC
Wind
  • 090° at 12 KTS
  • Gusting to 20 KTS
Visibility
1 1/2 SM
Flight Rules
IFR
Conditions
Heavy Rain, Mist
Cloud Levels
  • Few at 900' AGL
  • Broken at 1,900' AGL
  • Overcast at 3,400' AGL
Temperature
24°C / 75°F
Dewpoint
23°C / 73°F
Humidity
94%
Altimeter
29.64" Hg
Pressure
1003.72 hPa
Current Rain
0.01"
Previous

2 hours ago

KTTN 101953Z 06011KT 10SM FEW012 BKN022 OVC030 25/23 A2966 RMK AO2 RAE30 SLP035 P0002 T02500233
Observed
Jul-10 @ 19:53 UTC
Wind
  • 060° at 11 KTS
Visibility
10 SM
Flight Rules
MVFR
Cloud Levels
  • Few at 1,200' AGL
  • Broken at 2,200' AGL
  • Overcast at 3,000' AGL
Temperature
25°C / 77°F
Dewpoint
23°C / 73°F
Humidity
89%
Altimeter
29.66" Hg
Pressure
1004.42 hPa
Current Rain
0.02"